createdAt,value
2022-08-27T00:01:47.616Z,0.00
2022-08-27T00:04:15.837Z,0.00
2022-08-27T00:06:44.073Z,0.57
2022-08-27T00:11:42.071Z,0.00
2022-08-27T00:14:10.028Z,0.10
2022-08-27T00:16:39.423Z,0.00
2022-08-27T00:19:07.666Z,0.28
2022-08-27T00:21:35.672Z,0.20
2022-08-27T00:24:04.339Z,0.32
2022-08-27T00:26:32.847Z,0.10
2022-08-27T00:29:00.983Z,0.00
2022-08-27T00:31:29.351Z,0.00
2022-08-27T00:33:59.429Z,0.00
2022-08-27T00:36:27.381Z,0.00
2022-08-27T00:38:55.471Z,0.08
2022-08-27T00:41:23.884Z,0.30
2022-08-27T00:43:54.568Z,0.65
2022-08-27T00:46:26.516Z,0.00
2022-08-27T00:48:57.727Z,0.88
2022-08-27T00:51:28.461Z,0.00
2022-08-27T00:53:58.932Z,0.00
2022-08-27T00:58:57.889Z,0.00
2022-08-27T01:01:28.673Z,0.00
2022-08-27T01:03:59.609Z,0.00
2022-08-27T01:06:33.419Z,2.63
2022-08-27T01:09:06.255Z,0.30
2022-08-27T01:11:34.610Z,0.00
2022-08-27T01:14:04.007Z,0.28
2022-08-27T01:16:37.297Z,0.00
2022-08-27T01:19:10.525Z,0.00
2022-08-27T01:21:52.050Z,1.25
2022-08-27T01:24:33.934Z,0.22
2022-08-27T01:27:04.153Z,0.00
2022-08-27T01:29:34.698Z,0.00
2022-08-27T01:32:09.511Z,0.00
2022-08-27T01:34:38.427Z,0.00
2022-08-27T01:37:08.894Z,0.45
2022-08-27T01:39:41.244Z,0.00
2022-08-27T01:42:13.017Z,0.00
2022-08-27T01:44:47.607Z,0.00
2022-08-27T01:47:16.653Z,0.00
2022-08-27T01:49:45.141Z,0.00
2022-08-27T01:52:13.755Z,0.00
2022-08-27T01:54:43.227Z,0.35
2022-08-27T01:57:11.406Z,0.32
2022-08-27T01:59:40.234Z,0.00
2022-08-27T02:02:09.538Z,0.00
2022-08-27T02:04:37.761Z,0.00
2022-08-27T02:07:06.714Z,1.75
2022-08-27T02:09:34.740Z,0.00
2022-08-27T02:12:05.303Z,0.00
2022-08-27T02:17:01.770Z,0.00
2022-08-27T02:19:30.245Z,0.00
2022-08-27T02:22:00.417Z,0.00
2022-08-27T02:24:29.357Z,0.00
2022-08-27T02:26:58.834Z,0.00
2022-08-27T02:29:28.200Z,0.80
2022-08-27T02:31:56.356Z,0.00
2022-08-27T02:34:24.609Z,0.28
2022-08-27T02:36:54.539Z,0.85
2022-08-27T02:39:23.020Z,0.52
2022-08-27T02:41:51.198Z,0.00
2022-08-27T02:44:19.151Z,0.00
2022-08-27T02:46:50.057Z,0.00
2022-08-27T02:49:22.728Z,0.00
2022-08-27T02:51:54.689Z,0.00
2022-08-27T02:54:23.771Z,0.00
2022-08-27T02:56:57.138Z,0.00
2022-08-27T02:59:25.323Z,0.00
2022-08-27T03:01:56.154Z,0.00
2022-08-27T03:04:24.519Z,0.00
2022-08-27T03:06:52.447Z,0.20
2022-08-27T03:09:20.567Z,0.00
2022-08-27T03:11:48.854Z,0.00
2022-08-27T03:14:17.004Z,0.35
2022-08-27T03:16:45.041Z,0.38
2022-08-27T03:19:14.648Z,0.00
2022-08-27T03:21:45.005Z,0.00
2022-08-27T03:24:22.904Z,0.00
2022-08-27T03:26:53.753Z,0.00
2022-08-27T03:29:22.339Z,0.00
2022-08-27T03:31:50.504Z,1.02
2022-08-27T03:34:20.299Z,0.00
2022-08-27T03:36:51.569Z,0.00
2022-08-27T03:39:20.159Z,0.25
2022-08-27T03:41:54.745Z,0.00
2022-08-27T03:44:24.629Z,0.20
2022-08-27T03:46:54.491Z,0.00
2022-08-27T03:49:26.464Z,0.00
2022-08-27T04:01:40.582Z,0.90
2022-08-27T04:04:08.841Z,0.10
2022-08-27T04:06:38.569Z,0.00
2022-08-27T04:09:06.743Z,0.00
2022-08-27T04:11:41.265Z,0.55
2022-08-27T04:14:20.728Z,0.00
2022-08-27T04:16:58.244Z,0.00
2022-08-27T04:19:28.553Z,0.32
2022-08-27T04:24:32.474Z,0.00
2022-08-27T04:40:11.365Z,0.50
2022-08-27T04:42:39.694Z,0.38
2022-08-27T04:45:11.499Z,1.17
2022-08-27T04:47:39.499Z,0.10
2022-08-27T04:50:08.089Z,0.52
2022-08-27T04:52:40.860Z,0.00
2022-08-27T04:55:11.388Z,0.00
2022-08-27T05:02:39.568Z,0.00
2022-08-27T05:05:09.806Z,0.00
2022-08-27T05:07:39.265Z,0.30
2022-08-27T05:10:08.211Z,0.05
2022-08-27T05:12:37.595Z,0.00
2022-08-27T05:15:06.583Z,0.00
2022-08-27T05:17:34.843Z,0.00
2022-08-27T05:20:03.123Z,0.00
2022-08-27T05:22:31.154Z,0.30
2022-08-27T05:25:00.006Z,0.20
2022-08-27T05:27:28.432Z,0.00
2022-08-27T05:29:58.020Z,0.00
2022-08-27T05:32:26.090Z,0.00
2022-08-27T05:34:54.172Z,0.10
2022-08-27T05:37:22.272Z,0.05
2022-08-27T05:39:50.481Z,0.25
2022-08-27T05:42:19.641Z,0.13
2022-08-27T05:44:47.755Z,0.00
2022-08-27T05:47:16.927Z,0.35
2022-08-27T05:49:45.524Z,6.28
2022-08-27T05:52:13.666Z,0.20
2022-08-27T05:54:41.592Z,0.00
2022-08-27T05:57:09.771Z,0.00
2022-08-27T05:59:55.558Z,0.15
2022-08-27T06:02:25.625Z,0.00
2022-08-27T06:04:53.797Z,0.00
2022-08-27T06:07:21.994Z,0.00
2022-08-27T06:09:49.928Z,0.43
2022-08-27T06:12:17.847Z,1.40
2022-08-27T06:14:45.944Z,0.00
2022-08-27T06:17:13.962Z,0.00
2022-08-27T06:19:43.370Z,0.00
2022-08-27T06:22:11.220Z,0.00
2022-08-27T06:24:40.528Z,5.85
2022-08-27T06:27:11.278Z,0.28
2022-08-27T06:29:39.706Z,0.10
2022-08-27T06:32:08.869Z,0.00
2022-08-27T06:34:37.832Z,1.25
2022-08-27T06:37:07.506Z,0.00
2022-08-27T06:39:36.264Z,0.00
2022-08-27T06:42:06.288Z,0.08
2022-08-27T06:44:34.867Z,0.00
2022-08-27T06:47:03.800Z,0.13
2022-08-27T06:49:32.017Z,2.42
2022-08-27T06:51:59.961Z,0.00
2022-08-27T06:54:29.234Z,0.00
2022-08-27T06:56:59.348Z,0.00
2022-08-27T06:59:27.752Z,0.00
2022-08-27T07:01:55.652Z,0.00
2022-08-27T07:04:32.240Z,0.17
2022-08-27T07:07:01.862Z,1.40
2022-08-27T07:09:32.540Z,0.00
2022-08-27T07:12:01.670Z,0.05
2022-08-27T07:14:32.949Z,0.00
2022-08-27T07:17:05.354Z,0.00
2022-08-27T07:19:40.791Z,0.00
2022-08-27T07:22:09.377Z,0.00
2022-08-27T07:24:39.129Z,0.10
2022-08-27T07:27:07.539Z,0.00
2022-08-27T07:29:35.506Z,0.00
2022-08-27T07:32:04.051Z,0.00
2022-08-27T07:34:31.907Z,0.00
2022-08-27T07:36:59.722Z,0.00
2022-08-27T07:39:27.619Z,0.03
2022-08-27T07:42:16.315Z,0.00
2022-08-27T07:44:44.309Z,0.00
2022-08-27T07:47:13.706Z,0.15
2022-08-27T07:49:41.820Z,0.00
2022-08-27T07:52:09.890Z,0.00
2022-08-27T07:54:38.350Z,0.00
2022-08-27T07:57:07.728Z,2.92
2022-08-27T07:59:35.609Z,0.00
2022-08-27T08:02:03.659Z,0.00
2022-08-27T08:04:31.647Z,0.00
2022-08-27T08:06:59.572Z,0.00
2022-08-27T08:09:27.442Z,0.00
2022-08-27T08:11:55.471Z,0.55
2022-08-27T08:14:24.813Z,0.10
2022-08-27T08:16:52.770Z,0.00
2022-08-27T08:19:20.657Z,0.40
2022-08-27T08:21:48.938Z,0.00
2022-08-27T08:24:16.775Z,0.10
2022-08-27T08:26:44.670Z,4.07
2022-08-27T08:29:18.046Z,0.35
2022-08-27T08:31:50.370Z,0.00
2022-08-27T08:34:19.587Z,0.20
2022-08-27T08:36:52.410Z,0.00
2022-08-27T08:39:22.554Z,0.30
2022-08-27T08:41:53.437Z,1.50
2022-08-27T08:44:31.117Z,0.20
2022-08-27T08:47:05.159Z,0.00
2022-08-27T08:49:52.265Z,1.00
2022-08-27T08:52:33.452Z,0.10
2022-08-27T08:55:14.534Z,0.10
2022-08-27T08:57:50.213Z,0.00
2022-08-27T09:00:18.067Z,0.22
2022-08-27T09:02:54.570Z,0.00
2022-08-27T09:05:27.595Z,0.00
2022-08-27T09:08:31.857Z,0.00
2022-08-27T09:11:00.827Z,0.47
2022-08-27T09:13:34.102Z,0.32
2022-08-27T09:16:04.959Z,1.35
2022-08-27T09:18:38.028Z,31.90
2022-08-27T09:21:14.040Z,0.17
2022-08-27T09:23:54.663Z,0.00
2022-08-27T09:26:25.123Z,0.00
2022-08-27T09:31:44.414Z,0.00
2022-08-27T09:34:14.327Z,0.03
2022-08-27T09:36:53.419Z,0.00
2022-08-27T09:39:27.159Z,0.25
2022-08-27T09:41:55.108Z,0.10
2022-08-27T09:44:23.586Z,0.00
2022-08-27T09:46:59.760Z,0.00
2022-08-27T09:49:29.768Z,0.57
2022-08-27T09:51:59.054Z,0.00
2022-08-27T09:54:39.074Z,0.00
2022-08-27T09:57:08.750Z,0.00
2022-08-27T09:59:38.242Z,0.00
2022-08-27T10:02:14.821Z,0.00
2022-08-27T10:04:51.398Z,0.20
2022-08-27T10:07:25.414Z,9.45
2022-08-27T10:09:59.588Z,0.00
2022-08-27T10:12:34.144Z,0.00
2022-08-27T10:15:04.959Z,0.45
2022-08-27T10:17:42.074Z,0.00
2022-08-27T10:20:21.944Z,0.98
2022-08-27T10:23:07.006Z,0.00
2022-08-27T10:25:44.097Z,0.00
2022-08-27T10:28:26.563Z,0.00
2022-08-27T10:31:11.107Z,0.00
2022-08-27T10:33:48.557Z,0.10
2022-08-27T10:36:34.111Z,0.00
2022-08-27T10:39:08.786Z,4.60
2022-08-27T10:41:45.548Z,0.35
2022-08-27T10:44:35.702Z,0.75
2022-08-27T10:47:17.563Z,0.00
2022-08-27T10:49:55.331Z,0.15
2022-08-27T10:52:31.973Z,0.00
2022-08-27T10:55:10.605Z,12.57
2022-08-27T10:58:06.810Z,15.75
2022-08-27T11:00:47.632Z,13.45
2022-08-27T11:03:27.371Z,14.02
2022-08-27T11:06:05.903Z,12.82
2022-08-27T11:08:42.615Z,15.57
2022-08-27T11:12:03.247Z,12.05
2022-08-27T11:14:10.054Z,12.15
2022-08-27T11:16:48.207Z,10.68
2022-08-27T11:19:20.446Z,10.75
2022-08-27T11:22:06.377Z,12.88
2022-08-27T11:24:44.348Z,8.48
2022-08-27T11:27:16.031Z,10.70
2022-08-27T11:29:52.331Z,10.15
2022-08-27T11:32:36.915Z,13.55
2022-08-27T11:35:13.480Z,9.15
2022-08-27T11:37:58.642Z,13.82
2022-08-27T11:40:43.403Z,8.95
2022-08-27T11:43:15.957Z,10.05
2022-08-27T11:45:55.637Z,16.23
2022-08-27T11:48:26.238Z,14.00
2022-08-27T11:50:57.278Z,9.77
2022-08-27T11:53:28.975Z,18.13
2022-08-27T11:55:59.279Z,11.85
2022-08-27T12:01:04.350Z,10.18
2022-08-27T12:03:37.035Z,11.07
2022-08-27T12:06:27.724Z,12.20
2022-08-27T12:09:07.888Z,10.27
2022-08-27T12:11:49.564Z,13.82
2022-08-27T12:14:36.040Z,12.25
2022-08-27T12:17:13.228Z,11.88
2022-08-27T12:19:59.710Z,11.30
2022-08-27T12:22:59.317Z,10.23
2022-08-27T12:25:27.650Z,15.30
2022-08-27T12:27:59.679Z,14.90
2022-08-27T12:30:32.283Z,15.05
2022-08-27T12:33:10.880Z,14.10
2022-08-27T12:35:44.849Z,12.35
2022-08-27T12:38:17.742Z,14.07
2022-08-27T12:40:52.054Z,12.50
2022-08-27T12:43:24.786Z,17.23
2022-08-27T12:45:57.911Z,10.32
2022-08-27T12:48:29.577Z,20.95
2022-08-27T12:51:01.970Z,12.90
2022-08-27T12:53:43.463Z,13.75
2022-08-27T12:56:32.703Z,11.05
2022-08-27T12:59:16.105Z,14.10
2022-08-27T13:01:58.071Z,13.02
2022-08-27T13:04:29.207Z,12.75
2022-08-27T13:06:58.342Z,14.68
2022-08-27T13:09:29.543Z,9.65
2022-08-27T13:11:59.657Z,9.48
2022-08-27T13:14:36.409Z,11.05
2022-08-27T13:17:08.610Z,9.32
2022-08-27T13:19:39.027Z,8.95
2022-08-27T13:22:07.864Z,11.55
2022-08-27T13:24:37.331Z,10.98
2022-08-27T13:27:07.304Z,9.33
2022-08-27T13:29:37.312Z,9.20
2022-08-27T13:32:06.189Z,7.85
2022-08-27T13:34:39.189Z,9.68
2022-08-27T13:37:23.111Z,8.00
2022-08-27T13:39:54.439Z,9.90
2022-08-27T13:42:25.224Z,7.75
2022-08-27T13:45:02.518Z,7.18
2022-08-27T13:47:32.104Z,8.82
2022-08-27T13:50:07.766Z,10.73
2022-08-27T13:52:59.390Z,8.93
2022-08-27T13:55:33.349Z,8.45
2022-08-27T13:58:13.194Z,9.10
2022-08-27T14:00:43.302Z,6.60
2022-08-27T14:03:27.353Z,7.40
2022-08-27T14:05:57.163Z,6.13
2022-08-27T14:08:31.864Z,7.55
2022-08-27T14:11:04.771Z,4.63
2022-08-27T14:13:43.987Z,6.30
2022-08-27T14:16:27.971Z,6.80
2022-08-27T14:19:04.091Z,6.22
2022-08-27T14:21:38.149Z,5.40
2022-08-27T14:24:07.125Z,8.70
2022-08-27T14:26:35.643Z,6.15
2022-08-27T14:29:04.185Z,4.70
2022-08-27T14:31:41.913Z,5.40
2022-08-27T14:34:13.492Z,6.40
2022-08-27T14:36:44.387Z,4.15
2022-08-27T14:39:14.117Z,9.77
2022-08-27T14:41:43.153Z,5.40
2022-08-27T14:44:13.611Z,6.55
2022-08-27T14:46:43.712Z,6.35
2022-08-27T14:49:17.548Z,5.78
2022-08-27T14:51:48.348Z,6.43
2022-08-27T14:54:17.830Z,6.18
2022-08-27T14:56:48.138Z,7.45
2022-08-27T14:59:17.469Z,5.03
2022-08-27T15:01:50.198Z,4.80
2022-08-27T15:04:19.910Z,4.30
2022-08-27T15:06:53.053Z,12.43
2022-08-27T15:09:23.288Z,11.07
2022-08-27T15:11:53.087Z,7.80
2022-08-27T15:14:29.159Z,6.60
2022-08-27T15:17:01.169Z,5.63
2022-08-27T15:19:31.611Z,5.93
2022-08-27T15:22:05.681Z,9.53
2022-08-27T15:24:42.744Z,5.80
2022-08-27T15:27:12.418Z,7.72
2022-08-27T15:29:42.246Z,7.50
2022-08-27T15:32:29.618Z,10.30
2022-08-27T15:34:59.828Z,5.65
2022-08-27T15:39:57.314Z,4.50
2022-08-27T15:42:26.967Z,5.55
2022-08-27T15:44:57.489Z,7.70
2022-08-27T15:47:28.631Z,7.38
2022-08-27T15:49:58.746Z,7.85
2022-08-27T15:52:33.427Z,5.10
2022-08-27T15:55:16.166Z,6.30
2022-08-27T15:57:44.275Z,4.60
2022-08-27T16:00:16.411Z,8.88
2022-08-27T16:02:47.231Z,7.88
2022-08-27T16:05:23.607Z,8.95
2022-08-27T16:07:53.585Z,4.90
2022-08-27T16:10:23.017Z,5.97
2022-08-27T16:12:57.245Z,8.98
2022-08-27T16:15:27.774Z,6.80
2022-08-27T16:18:06.272Z,7.18
2022-08-27T16:20:42.481Z,6.85
2022-08-27T16:23:10.901Z,3.15
2022-08-27T16:25:39.323Z,4.25
2022-08-27T16:28:07.701Z,3.72
2022-08-27T16:30:37.943Z,3.70
2022-08-27T16:33:08.153Z,4.10
2022-08-27T16:35:36.560Z,3.33
2022-08-27T16:38:05.829Z,7.38
2022-08-27T16:40:38.497Z,5.20
2022-08-27T16:43:07.621Z,7.78
2022-08-27T16:45:38.568Z,4.15
2022-08-27T16:48:25.959Z,4.78
2022-08-27T16:50:54.065Z,4.25
2022-08-27T16:53:22.987Z,4.18
2022-08-27T16:55:52.003Z,4.32
2022-08-27T16:58:22.176Z,6.35
2022-08-27T17:00:52.678Z,7.97
2022-08-27T17:03:23.879Z,5.80
2022-08-27T17:05:52.687Z,7.25
2022-08-27T17:08:26.081Z,6.82
2022-08-27T17:10:55.490Z,5.93
2022-08-27T17:13:28.421Z,6.07
2022-08-27T17:15:57.739Z,5.43
2022-08-27T17:18:28.284Z,6.88
2022-08-27T17:20:58.422Z,6.70
2022-08-27T17:23:31.830Z,10.38
2022-08-27T17:26:00.084Z,10.32
2022-08-27T17:28:28.295Z,9.02
2022-08-27T17:30:57.434Z,10.32
2022-08-27T17:33:31.140Z,10.63
2022-08-27T17:36:00.047Z,9.15
2022-08-27T17:38:28.184Z,8.43
2022-08-27T17:40:57.154Z,10.93
2022-08-27T17:43:25.637Z,9.52
2022-08-27T17:45:53.980Z,13.73
2022-08-27T17:48:26.437Z,12.27
2022-08-27T17:50:56.182Z,10.95
2022-08-27T17:53:25.518Z,8.70
2022-08-27T17:55:53.485Z,12.13
2022-08-27T17:58:23.162Z,9.88
2022-08-27T18:00:55.259Z,8.00
2022-08-27T18:03:27.240Z,10.30
2022-08-27T18:05:59.815Z,10.52
2022-08-27T18:08:28.367Z,9.95
2022-08-27T18:10:57.206Z,9.75
2022-08-27T18:13:25.891Z,10.88
2022-08-27T18:15:54.022Z,13.32
2022-08-27T18:18:22.076Z,10.30
2022-08-27T18:20:51.573Z,12.30
2022-08-27T18:23:21.924Z,11.52
2022-08-27T18:25:51.195Z,13.20
2022-08-27T18:28:22.284Z,11.75
2022-08-27T18:30:51.367Z,13.85
2022-08-27T18:33:19.845Z,12.50
2022-08-27T18:35:48.133Z,15.40
2022-08-27T18:38:17.476Z,11.55
2022-08-27T18:40:49.875Z,9.48
2022-08-27T18:43:22.715Z,13.95
2022-08-27T18:45:50.782Z,15.23
2022-08-27T18:48:22.511Z,12.07
2022-08-27T18:50:53.522Z,13.43
2022-08-27T18:53:22.428Z,10.43
2022-08-27T18:55:52.504Z,9.68
2022-08-27T18:58:20.937Z,12.32
2022-08-27T19:00:53.100Z,11.48
2022-08-27T19:03:29.241Z,13.38
2022-08-27T19:06:00.677Z,16.60
2022-08-27T19:08:36.531Z,16.95
2022-08-27T19:15:31.851Z,14.20
2022-08-27T19:18:16.862Z,12.93
2022-08-27T19:21:05.338Z,12.23
2022-08-27T19:23:38.851Z,11.63
2022-08-27T19:26:30.953Z,11.30
2022-08-27T19:29:10.966Z,14.27
2022-08-27T19:32:17.798Z,11.45
2022-08-27T19:38:08.713Z,10.50
2022-08-27T19:47:44.362Z,15.25
2022-08-27T20:00:58.187Z,10.13
2022-08-27T20:04:02.120Z,12.25
2022-08-27T20:07:36.505Z,13.63
2022-08-27T20:10:12.473Z,12.98
2022-08-27T20:12:43.224Z,12.63
2022-08-27T20:15:26.011Z,18.27
2022-08-27T20:18:15.380Z,12.98
2022-08-27T20:24:03.451Z,13.45
2022-08-27T20:39:39.581Z,11.75
2022-08-27T20:51:14.958Z,12.95
2022-08-27T20:54:01.781Z,12.48
2022-08-27T20:56:43.108Z,12.63
2022-08-27T21:00:22.827Z,16.53
2022-08-27T21:06:30.934Z,13.95
2022-08-27T21:09:14.257Z,13.52
2022-08-27T21:11:46.754Z,13.20
2022-08-27T21:14:17.460Z,10.45
2022-08-27T21:16:50.595Z,11.00
2022-08-27T21:19:22.733Z,13.23
2022-08-27T21:21:51.895Z,11.32
2022-08-27T21:24:22.970Z,11.75
2022-08-27T21:26:58.565Z,10.27
2022-08-27T21:29:31.800Z,13.77
2022-08-27T21:32:09.694Z,10.30
2022-08-27T21:34:47.299Z,11.93
2022-08-27T21:37:21.427Z,10.65
2022-08-27T21:41:06.404Z,11.52
2022-08-27T21:44:37.548Z,14.02
2022-08-27T21:48:11.758Z,11.75
2022-08-27T21:51:24.711Z,16.63
2022-08-27T22:07:10.777Z,13.30
2022-08-27T22:09:40.690Z,9.27
2022-08-27T22:12:10.953Z,13.00
2022-08-27T22:17:11.132Z,9.00
2022-08-27T22:19:50.393Z,12.05
2022-08-27T22:22:30.705Z,7.57
2022-08-27T22:25:07.664Z,11.43
2022-08-27T22:27:37.634Z,10.98
2022-08-27T22:30:11.141Z,11.02
2022-08-27T22:32:44.208Z,11.02
2022-08-27T22:35:16.541Z,11.18
2022-08-27T22:37:47.415Z,11.80
2022-08-27T22:40:21.360Z,12.50
2022-08-27T22:42:53.955Z,11.75
2022-08-27T22:45:24.137Z,10.20
2022-08-27T22:50:25.528Z,10.23
2022-08-27T22:52:57.804Z,12.00
2022-08-27T22:55:28.951Z,14.05
2022-08-27T22:57:59.846Z,10.18
2022-08-27T23:00:34.547Z,12.90
2022-08-27T23:03:07.056Z,10.40
2022-08-27T23:05:40.386Z,13.20
2022-08-27T23:08:14.515Z,16.35
2022-08-27T23:10:45.276Z,12.05
2022-08-27T23:15:45.838Z,8.77
2022-08-27T23:18:33.757Z,12.80
2022-08-27T23:21:08.221Z,10.98
2022-08-27T23:23:41.135Z,11.55
2022-08-27T23:26:27.914Z,11.45
2022-08-27T23:28:57.008Z,9.32
2022-08-27T23:31:29.695Z,10.05
2022-08-27T23:33:58.972Z,21.52
2022-08-27T23:36:29.831Z,14.95
2022-08-27T23:39:01.865Z,10.73
2022-08-27T23:41:32.128Z,11.07
2022-08-27T23:44:04.381Z,16.05
2022-08-27T23:46:33.575Z,10.80
2022-08-27T23:49:02.702Z,11.90
2022-08-27T23:51:32.702Z,13.52
2022-08-27T23:54:03.973Z,10.23
2022-08-27T23:56:36.135Z,10.77
2022-08-27T23:59:05.939Z,14.63
